»·PEaware :: AAL809 KSAN-KPHX

AAL809 :: KSAN-KPHX

FLIGHT INFORMATION

Flight Status: Arrived
Operator:
American Airlines
More flights by this operator :: More flights under this callsign
Pilot: Marcelo T. (6927)
Aircraft: AIRBUS A321
(A321)
More flights by this aircraft type
Origin: KSAN San Diego Intl-Lindbergh
United States
Destination: KPHX Phoenix Sky Harbor Intl
United States
More flights between these airports :: More routes between these airports
Route: +ZZOOO1 IPL J18 BZA J2 HOGGZ HYDRR1
File this flight plan on PilotEdge
Remarks: SEL / BQDR PBN / A1B1C1D1O1S2T1 NAV / RNVD1E2A1 DOF / 170317 REG / N582UW EET / KZAB0025 SEL / BQDR
Altitude:
(Current/Filed)
F310
Speed:
(Current/Filed)
439kts
Departed: 16-Mar-17 05:06 PM
Arrived: 16-Mar-17 05:53 PM
Distance/Time
Traveled:
264nm/0:47
Distance/Time
To Go:
Arrived

Flight Plot

Page will automatically refresh every two minutes.

Flight plan parsing failed; only flown route is shown


Map Options




Map Legend


Flown Route
Filed Route
Departure Airport
Arrival Airport
Navaid (VOR, NDB)
Fix

Horizontal Profiles

Position Reports

Time Latitude Longitude Heading Altitude Ground
Speed
16-Mar-17 16:39 32.732881 -117.201639 82 29ft 0kts
16-Mar-17 16:40 32.732881 -117.201639 82 29ft 0kts
16-Mar-17 16:41 32.732881 -117.201639 82 29ft 0kts
16-Mar-17 16:42 32.732881 -117.201639 82 29ft 0kts
16-Mar-17 16:43 32.732881 -117.201639 82 29ft 0kts
16-Mar-17 16:44 32.732881 -117.201639 82 29ft 0kts
16-Mar-17 16:45 32.732881 -117.201639 82 29ft 0kts
16-Mar-17 16:46 32.732881 -117.201639 82 29ft 0kts
16-Mar-17 16:47 32.732881 -117.201639 82 29ft 0kts
16-Mar-17 16:48 32.732881 -117.201639 82 29ft 0kts
16-Mar-17 16:49 32.732881 -117.201639 82 29ft 0kts
16-Mar-17 16:50 32.732881 -117.201639 82 29ft 0kts
16-Mar-17 16:51 32.732881 -117.201639 82 29ft 0kts
16-Mar-17 16:52 32.732881 -117.201639 82 29ft 0kts
16-Mar-17 16:53 32.732881 -117.201639 82 29ft 0kts
16-Mar-17 16:54 32.732881 -117.201639 82 29ft 0kts
16-Mar-17 16:55 32.732838 -117.202052 82 29ft 2kts
16-Mar-17 16:56 32.732770 -117.202698 82 29ft 0kts
16-Mar-17 16:57 32.732770 -117.202697 82 29ft 0kts
16-Mar-17 16:58 32.732770 -117.202697 82 29ft 0kts
16-Mar-17 16:59 32.732770 -117.202696 82 29ft 0kts
16-Mar-17 17:00 32.733674 -117.202760 346 29ft 10kts
16-Mar-17 17:01 32.735072 -117.200193 105 29ft 16kts
16-Mar-17 17:02 32.733383 -117.193261 105 29ft 24kts
16-Mar-17 17:03 32.731378 -117.184988 105 29ft 27kts
16-Mar-17 17:04 32.729616 -117.177704 106 29ft 16kts
16-Mar-17 17:05 32.729515 -117.176745 72 29ft 0kts
16-Mar-17 17:06 32.730224 -117.175777 291 29ft 9kts
16-Mar-17 17:07 32.736850 -117.203331 286 437ft 164kts
16-Mar-17 17:08 32.750419 -117.260283 286 2874ft 230kts
16-Mar-17 17:09 32.738969 -117.338094 224 6475ft 271kts
16-Mar-17 17:10 32.666891 -117.338533 136 10140ft 298kts
16-Mar-17 17:11 32.628907 -117.237234 107 12198ft 379kts
16-Mar-17 17:12 32.617476 -117.106518 93 15630ft 406kts
16-Mar-17 17:13 32.606463 -116.971015 93 19018ft 420kts
16-Mar-17 17:14 32.617711 -116.834189 74 21537ft 434kts
16-Mar-17 17:15 32.639241 -116.690648 81 23797ft 451kts
16-Mar-17 17:16 32.653662 -116.540508 81 25645ft 465kts
16-Mar-17 17:17 32.668483 -116.386494 81 27269ft 475kts
16-Mar-17 17:18 32.683631 -116.228656 80 28600ft 485kts
16-Mar-17 17:19 32.698847 -116.068818 80 29925ft 489kts
16-Mar-17 17:20 32.713435 -115.908996 81 30987ft 483kts
16-Mar-17 17:21 32.727699 -115.751473 80 30995ft 480kts
16-Mar-17 17:22 32.742054 -115.593501 81 30982ft 480kts
16-Mar-17 17:23 32.752345 -115.435731 86 30975ft 481kts
16-Mar-17 17:24 32.755498 -115.278720 86 30985ft 481kts
16-Mar-17 17:25 32.758866 -115.120144 86 30986ft 481kts
16-Mar-17 17:26 32.762144 -114.961705 86 30986ft 480kts
16-Mar-17 17:27 32.765047 -114.803109 86 30987ft 479kts
16-Mar-17 17:28 32.767963 -114.646826 86 30989ft 478kts
16-Mar-17 17:29 32.770304 -114.489281 86 30989ft 477kts
16-Mar-17 17:30 32.772332 -114.331897 86 30991ft 477kts
16-Mar-17 17:31 32.774366 -114.174241 86 30995ft 476kts
16-Mar-17 17:32 32.779474 -114.022867 80 30022ft 450kts
16-Mar-17 17:33 32.795746 -113.877624 79 28245ft 435kts
16-Mar-17 17:34 32.810986 -113.741094 79 25934ft 411kts
16-Mar-17 17:35 32.862663 -113.626647 46 24200ft 395kts
16-Mar-17 17:36 32.934638 -113.529802 46 22739ft 388kts
16-Mar-17 17:37 33.005349 -113.434498 46 21300ft 381kts
16-Mar-17 17:38 33.074768 -113.340590 46 19863ft 374kts
16-Mar-17 17:39 33.143086 -113.248118 46 18482ft 369kts
16-Mar-17 17:40 33.210476 -113.156797 46 17091ft 362kts
16-Mar-17 17:41 33.269910 -113.064254 68 16248ft 344kts
16-Mar-17 17:42 33.277507 -112.950401 87 14277ft 342kts
16-Mar-17 17:43 33.280957 -112.839593 82 12823ft 319kts
16-Mar-17 17:44 33.309857 -112.743370 65 11468ft 301kts
16-Mar-17 17:45 33.342933 -112.655674 64 10337ft 285kts
16-Mar-17 17:46 33.375751 -112.569892 65 8935ft 281kts
16-Mar-17 17:47 33.405924 -112.489526 67 8069ft 257kts
16-Mar-17 17:48 33.427754 -112.409578 87 6754ft 251kts
16-Mar-17 17:49 33.428681 -112.326778 90 5477ft 245kts
16-Mar-17 17:50 33.428968 -112.246069 91 4406ft 245kts
16-Mar-17 17:51 33.428946 -112.167378 91 3379ft 229kts
16-Mar-17 17:52 33.428890 -112.094510 90 2273ft 201kts
16-Mar-17 17:53 33.428872 -112.035289 89 1316ft 162kts
16-Mar-17 17:54 33.429557 -112.010733 42 1149ft 8kts
16-Mar-17 17:55 33.430658 -112.008969 359 1149ft 11kts
16-Mar-17 17:56 33.432117 -112.006076 89 1149ft 21kts
16-Mar-17 17:57 33.434964 -112.003791 0 1149ft 20kts
16-Mar-17 17:58 33.438995 -112.002279 89 1149ft 16kts
16-Mar-17 17:59 33.436908 -112.000710 222 1149ft 3kts
16-Mar-17 18:00 33.436834 -112.001154 271 1149ft 0kts
16-Mar-17 18:01 33.436834 -112.001154 271 1149ft 0kts
16-Mar-17 18:02 33.436834 -112.001154 271 1149ft 0kts
16-Mar-17 18:03 33.436834 -112.001154 271 1149ft 0kts
16-Mar-17 18:04 33.436834 -112.001154 271 1149ft 0kts

Navigation Log

Ident Type
Flight plan parsing failed, navigation log unavailable